Time;durP1;ratioP1;P1;durP2;ratioP2;P2;SDS_P1;SDS_P2;PMS_P1;PMS_P2;Temp;Humidity;BMP_temperature;BMP_pressure;BME280_temperature;BME280_humidity;BME280_pressure;Samples;Min_cycle;Max_cycle;Signal;HPM_P1;HPM_P2
2023/05/14 00:02:13;;;;;;;;;;;11.30;99.90;;;;;;4953008;28;20009;-67
2023/05/14 00:04:39;;;;;;;;;;;11.30;99.90;;;;;;4951260;28;20001;-64
2023/05/14 00:07:05;;;;;;;;;;;11.20;99.90;;;;;;4955316;28;20504;-66
2023/05/14 00:09:31;;;;;;;;;;;11.10;99.90;;;;;;4955699;28;20039;-64
2023/05/14 00:11:56;;;;;;;;;;;11.00;99.90;;;;;;4955610;28;19914;-64
2023/05/14 00:14:22;;;;;;;;;;;11.00;99.90;;;;;;4952390;28;19918;-64
2023/05/14 00:16:47;;;;;;;;;;;11.00;99.90;;;;;;4953007;28;19973;-64
2023/05/14 00:19:13;;;;;;;;;;;11.00;99.90;;;;;;4949973;28;19985;-64
2023/05/14 00:21:38;;;;;;;;;;;11.00;99.90;;;;;;4954283;28;19914;-67
2023/05/14 00:24:04;;;;;;;;;;;11.00;99.90;;;;;;4952399;28;19929;-63
2023/05/14 00:26:29;;;;;;;;;;;11.00;99.90;;;;;;4956492;28;20107;-63
2023/05/14 00:28:55;;;;;;;;;;;11.10;99.90;;;;;;4956149;28;19940;-63
2023/05/14 00:31:20;;;;;;;;;;;11.10;99.90;;;;;;4951870;28;20627;-63
2023/05/14 00:33:46;;;;;;;;;;;11.20;99.90;;;;;;4954136;28;20578;-64
2023/05/14 00:36:11;;;;;;;;;;;11.20;99.90;;;;;;4953707;28;19920;-63
2023/05/14 00:38:37;;;;;;;;;;;11.30;99.90;;;;;;4951741;28;20366;-63
2023/05/14 00:41:02;;;;;;;;;;;11.30;99.90;;;;;;4956068;28;19914;-65
2023/05/14 00:43:28;;;;;;;;;;;11.40;99.90;;;;;;4952679;28;19922;-64
2023/05/14 00:45:54;;;;;;;;;;;11.40;99.90;;;;;;4952562;28;20004;-63
2023/05/14 00:48:20;;;;;;;;;;;11.50;99.90;;;;;;4954668;28;20545;-64
2023/05/14 00:50:46;;;;;;;;;;;11.40;99.90;;;;;;4951335;28;20425;-64
2023/05/14 00:53:12;;;;;;;;;;;11.40;99.90;;;;;;4953584;28;19996;-63
2023/05/14 00:55:39;;;;;;;;;;;11.40;99.90;;;;;;4951295;28;19914;-64
2023/05/14 00:58:11;;;;;;;;;;;11.40;99.90;;;;;;4953152;28;19914;-65
2023/05/14 01:00:37;;;;;;;;;;;11.40;99.90;;;;;;4951726;28;19960;-64
2023/05/14 01:03:03;;;;;;;;;;;11.40;99.90;;;;;;4948712;28;19924;-64
2023/05/14 01:05:44;;;;;;;;;;;11.50;99.90;;;;;;4949192;28;20451;-64
2023/05/14 01:08:26;;;;;;;;;;;11.50;99.90;;;;;;4955747;28;19918;-64
2023/05/14 01:10:56;;;;;;;;;;;11.50;99.90;;;;;;4954159;28;19918;-64
2023/05/14 01:13:26;;;;;;;;;;;11.50;99.90;;;;;;4956064;28;20255;-62
2023/05/14 01:15:54;;;;;;;;;;;11.50;99.90;;;;;;4956667;28;20286;-64
2023/05/14 01:18:20;;;;;;;;;;;11.50;99.90;;;;;;4956496;28;19914;-64
2023/05/14 01:20:48;;;;;;;;;;;11.50;99.90;;;;;;4951137;28;19918;-65
2023/05/14 01:23:14;;;;;;;;;;;11.50;99.90;;;;;;4951615;28;19933;-66
2023/05/14 01:25:40;;;;;;;;;;;11.50;99.90;;;;;;4949106;28;19915;-65
2023/05/14 01:28:05;;;;;;;;;;;11.50;99.90;;;;;;4949420;28;20027;-66
2023/05/14 01:30:33;;;;;;;;;;;11.50;99.90;;;;;;4947967;28;19961;-65
2023/05/14 01:33:01;;;;;;;;;;;11.50;99.90;;;;;;4949040;28;20311;-66
2023/05/14 01:35:27;;;;;;;;;;;11.40;99.90;;;;;;4943298;28;20025;-66
2023/05/14 01:37:55;;;;;;;;;;;11.40;99.90;;;;;;4950766;28;19953;-64
2023/05/14 01:40:21;;;;;;;;;;;11.40;99.90;;;;;;4950271;28;19981;-64
2023/05/14 01:42:47;;;;;;;;;;;11.40;99.90;;;;;;4946668;28;19968;-63
2023/05/14 01:45:12;;;;;;;;;;;11.40;99.90;;;;;;4946938;28;20036;-63
2023/05/14 01:47:38;;;;;;;;;;;11.30;99.90;;;;;;4951162;28;19921;-64
2023/05/14 01:50:04;;;;;;;;;;;11.30;99.90;;;;;;4948679;28;20858;-64
2023/05/14 01:52:29;;;;;;;;;;;11.30;99.90;;;;;;4953601;28;20527;-64
2023/05/14 01:54:57;;;;;;;;;;;11.30;99.90;;;;;;4948970;28;19918;-64
2023/05/14 01:57:22;;;;;;;;;;;11.30;99.90;;;;;;4949693;28;20368;-64
2023/05/14 01:59:48;;;;;;;;;;;11.20;99.90;;;;;;4946995;28;20500;-63
2023/05/14 02:02:13;;;;;;;;;;;11.30;99.90;;;;;;4956429;28;20001;-64
2023/05/14 02:04:39;;;;;;;;;;;11.30;99.90;;;;;;4953652;28;19928;-64
2023/05/14 02:07:04;;;;;;;;;;;11.30;99.90;;;;;;4951230;28;20382;-64
2023/05/14 02:09:30;;;;;;;;;;;11.30;99.90;;;;;;4954835;28;20359;-64
2023/05/14 02:11:55;;;;;;;;;;;11.40;99.90;;;;;;4956346;28;19949;-63
2023/05/14 02:14:21;;;;;;;;;;;11.30;99.90;;;;;;4955832;28;19980;-64
2023/05/14 02:16:46;;;;;;;;;;;11.40;99.90;;;;;;4955122;28;20391;-64
2023/05/14 02:19:12;;;;;;;;;;;11.40;99.90;;;;;;4959306;28;20479;-64
2023/05/14 02:21:37;;;;;;;;;;;11.40;99.90;;;;;;4955112;28;19972;-64
2023/05/14 02:24:03;;;;;;;;;;;11.40;99.90;;;;;;4955310;28;19926;-63
2023/05/14 02:26:28;;;;;;;;;;;11.40;99.90;;;;;;4956993;28;20462;-64
2023/05/14 02:28:54;;;;;;;;;;;11.40;99.90;;;;;;4954693;28;20037;-63
2023/05/14 02:31:19;;;;;;;;;;;11.40;99.90;;;;;;4955173;28;19918;-64
2023/05/14 02:33:45;;;;;;;;;;;11.40;99.90;;;;;;4953811;28;20342;-64
2023/05/14 02:36:10;;;;;;;;;;;11.40;99.90;;;;;;4956779;28;20489;-64
2023/05/14 02:38:36;;;;;;;;;;;11.40;99.90;;;;;;4955341;28;20659;-64
2023/05/14 02:41:01;;;;;;;;;;;11.40;99.90;;;;;;4957564;28;19942;-65
2023/05/14 02:43:27;;;;;;;;;;;11.40;99.90;;;;;;4955113;28;19965;-64
2023/05/14 02:45:52;;;;;;;;;;;11.40;99.90;;;;;;4957868;28;21190;-65
2023/05/14 02:48:18;;;;;;;;;;;11.40;99.90;;;;;;4956387;28;20358;-65
2023/05/14 02:50:43;;;;;;;;;;;11.40;99.90;;;;;;4954268;28;19921;-65
2023/05/14 02:53:09;;;;;;;;;;;11.40;99.90;;;;;;4953817;28;19914;-64
2023/05/14 02:55:34;;;;;;;;;;;11.40;99.90;;;;;;4955492;28;19914;-65
2023/05/14 02:58:00;;;;;;;;;;;11.40;99.90;;;;;;4955633;28;19967;-63
2023/05/14 03:00:25;;;;;;;;;;;11.40;99.90;;;;;;4952164;28;20035;-64
2023/05/14 03:02:51;;;;;;;;;;;11.40;99.90;;;;;;4950295;28;20410;-63
2023/05/14 03:05:16;;;;;;;;;;;11.50;99.90;;;;;;4955344;28;19928;-64
2023/05/14 03:07:42;;;;;;;;;;;11.50;99.90;;;;;;4950549;28;20252;-63
2023/05/14 03:10:07;;;;;;;;;;;11.50;99.90;;;;;;4954561;28;20808;-64
2023/05/14 03:12:33;;;;;;;;;;;11.50;99.90;;;;;;4960481;28;19910;-64
2023/05/14 03:14:59;;;;;;;;;;;11.50;99.90;;;;;;4954456;28;19915;-65
2023/05/14 03:17:24;;;;;;;;;;;11.50;99.90;;;;;;4955249;28;20005;-65
2023/05/14 03:19:49;;;;;;;;;;;11.50;99.90;;;;;;4955763;28;19922;-66
2023/05/14 03:22:15;;;;;;;;;;;11.50;99.90;;;;;;4954744;28;20363;-65
2023/05/14 03:24:41;;;;;;;;;;;11.40;99.90;;;;;;4951334;28;19925;-65
2023/05/14 03:27:06;;;;;;;;;;;11.40;99.90;;;;;;4954194;28;20524;-66
2023/05/14 03:29:32;;;;;;;;;;;11.40;99.90;;;;;;4950135;28;19961;-65
2023/05/14 03:31:57;;;;;;;;;;;11.40;99.90;;;;;;4953517;28;20656;-66
2023/05/14 03:34:23;;;;;;;;;;;11.40;99.90;;;;;;4955050;28;19918;-66
2023/05/14 03:36:49;;;;;;;;;;;11.50;99.90;;;;;;4953867;28;19913;-65
2023/05/14 03:39:18;;;;;;;;;;;11.50;99.90;;;;;;4952773;28;20420;-65
2023/05/14 03:41:47;;;;;;;;;;;11.60;99.90;;;;;;4950531;28;19921;-65
2023/05/14 03:44:12;;;;;;;;;;;11.60;99.90;;;;;;4955139;28;19930;-65
2023/05/14 03:46:38;;;;;;;;;;;11.60;99.90;;;;;;4955674;28;19917;-66
2023/05/14 03:49:03;;;;;;;;;;;11.50;99.90;;;;;;4950541;28;20778;-65
2023/05/14 03:51:30;;;;;;;;;;;11.50;99.90;;;;;;4954475;28;20333;-64
2023/05/14 03:53:57;;;;;;;;;;;11.50;99.90;;;;;;4956049;28;19945;-64
2023/05/14 03:56:23;;;;;;;;;;;11.60;99.90;;;;;;4954978;28;19981;-64
2023/05/14 03:58:48;;;;;;;;;;;11.70;99.90;;;;;;4950899;28;19973;-64
2023/05/14 04:01:14;;;;;;;;;;;11.70;99.90;;;;;;4953690;28;19914;-64
2023/05/14 04:03:39;;;;;;;;;;;11.70;99.90;;;;;;4957338;28;19922;-64
2023/05/14 04:06:05;;;;;;;;;;;11.70;99.90;;;;;;4947982;28;19922;-64
2023/05/14 04:08:31;;;;;;;;;;;11.70;99.90;;;;;;4953181;28;19920;-64
2023/05/14 04:10:56;;;;;;;;;;;11.60;99.90;;;;;;4953867;28;19914;-65
2023/05/14 04:13:22;;;;;;;;;;;11.70;99.90;;;;;;4952491;28;20634;-66
2023/05/14 04:15:47;;;;;;;;;;;11.70;99.90;;;;;;4954831;28;20555;-67
2023/05/14 04:18:13;;;;;;;;;;;11.80;99.90;;;;;;4950979;28;19922;-65
2023/05/14 04:20:39;;;;;;;;;;;11.80;99.90;;;;;;4954174;28;20409;-66
2023/05/14 04:23:04;;;;;;;;;;;11.80;99.90;;;;;;4951149;28;20670;-66
2023/05/14 04:25:30;;;;;;;;;;;11.80;99.90;;;;;;4955102;28;19928;-66
2023/05/14 04:27:55;;;;;;;;;;;11.80;99.90;;;;;;4953616;28;20331;-66
2023/05/14 04:30:21;;;;;;;;;;;11.80;99.90;;;;;;4950305;28;19924;-66
2023/05/14 04:32:46;;;;;;;;;;;11.80;99.90;;;;;;4951165;28;19914;-66
2023/05/14 04:35:12;;;;;;;;;;;11.80;99.90;;;;;;4955991;28;19960;-66
2023/05/14 04:37:37;;;;;;;;;;;11.80;99.90;;;;;;4948513;28;20275;-66
2023/05/14 04:40:04;;;;;;;;;;;11.80;99.90;;;;;;4954629;28;19915;-66
2023/05/14 04:42:30;;;;;;;;;;;11.70;99.90;;;;;;4951758;28;19946;-66
2023/05/14 04:44:55;;;;;;;;;;;11.70;99.90;;;;;;4956714;28;20408;-66
2023/05/14 04:47:21;;;;;;;;;;;11.80;99.90;;;;;;4957370;28;19933;-66
2023/05/14 04:49:47;;;;;;;;;;;11.70;99.90;;;;;;4953414;28;20500;-65
2023/05/14 04:52:12;;;;;;;;;;;11.70;99.90;;;;;;4953475;28;19968;-66
2023/05/14 04:54:38;;;;;;;;;;;11.70;99.90;;;;;;4949438;28;20397;-66
2023/05/14 04:57:03;;;;;;;;;;;11.70;99.90;;;;;;4955357;28;19920;-66
2023/05/14 04:59:29;;;;;;;;;;;11.70;99.90;;;;;;4951911;28;19972;-65
2023/05/14 05:01:55;;;;;;;;;;;11.60;99.90;;;;;;4953061;28;19918;-65
2023/05/14 05:04:22;;;;;;;;;;;11.60;99.90;;;;;;4949605;28;19926;-65
2023/05/14 05:06:51;;;;;;;;;;;11.70;99.90;;;;;;4949166;28;20596;-65
2023/05/14 05:09:16;;;;;;;;;;;11.70;99.90;;;;;;4945862;28;20765;-64
2023/05/14 05:11:42;;;;;;;;;;;11.80;99.90;;;;;;4954738;28;19910;-64
2023/05/14 05:14:07;;;;;;;;;;;11.80;99.90;;;;;;4947671;28;20012;-64
2023/05/14 05:16:33;;;;;;;;;;;11.70;99.90;;;;;;4949216;28;20516;-64
2023/05/14 05:18:59;;;;;;;;;;;11.70;99.90;;;;;;4953899;28;19917;-64
2023/05/14 05:21:24;;;;;;;;;;;11.70;99.90;;;;;;4951379;28;19988;-64
2023/05/14 05:23:50;;;;;;;;;;;11.70;99.90;;;;;;4951297;28;20462;-65
2023/05/14 05:26:15;;;;;;;;;;;11.80;99.90;;;;;;4952597;28;19926;-64
2023/05/14 05:28:41;;;;;;;;;;;11.90;99.90;;;;;;4954166;28;19953;-64
2023/05/14 05:31:06;;;;;;;;;;;11.90;99.90;;;;;;4952157;28;19914;-64
2023/05/14 05:33:33;;;;;;;;;;;11.80;99.90;;;;;;4952287;28;19921;-64
2023/05/14 05:35:59;;;;;;;;;;;11.80;99.90;;;;;;4955544;28;20619;-65
2023/05/14 05:38:24;;;;;;;;;;;11.80;99.90;;;;;;4954476;28;19921;-64
2023/05/14 05:40:50;;;;;;;;;;;11.80;99.90;;;;;;4949728;28;19914;-64
2023/05/14 05:43:15;;;;;;;;;;;11.80;99.90;;;;;;4953314;28;19926;-64
2023/05/14 05:45:41;;;;;;;;;;;11.90;99.90;;;;;;4952868;28;19958;-65
2023/05/14 05:48:06;;;;;;;;;;;11.90;99.90;;;;;;4952945;28;19957;-66
2023/05/14 05:50:32;;;;;;;;;;;11.90;99.90;;;;;;4948064;28;20049;-66
2023/05/14 05:53:00;;;;;;;;;;;12.00;99.90;;;;;;4952888;28;20342;-66
2023/05/14 05:55:26;;;;;;;;;;;12.00;99.90;;;;;;4952125;28;20028;-66
2023/05/14 05:57:51;;;;;;;;;;;12.10;99.90;;;;;;4954848;28;20398;-66
2023/05/14 06:00:17;;;;;;;;;;;12.00;99.90;;;;;;4950118;28;20298;-66
2023/05/14 06:02:43;;;;;;;;;;;11.90;99.90;;;;;;4948893;28;20022;-66
2023/05/14 06:05:09;;;;;;;;;;;12.00;99.90;;;;;;4953662;28;19926;-65
2023/05/14 06:07:34;;;;;;;;;;;12.00;99.90;;;;;;4949373;28;19953;-64
2023/05/14 06:10:00;;;;;;;;;;;11.90;99.90;;;;;;4951779;28;19910;-64
2023/05/14 06:12:25;;;;;;;;;;;12.00;99.90;;;;;;4951686;28;19915;-65
2023/05/14 06:14:54;;;;;;;;;;;11.90;99.90;;;;;;4952430;28;19937;-64
2023/05/14 06:17:19;;;;;;;;;;;11.90;99.90;;;;;;4955362;28;19920;-64
2023/05/14 06:19:45;;;;;;;;;;;12.00;99.90;;;;;;4954963;28;19910;-64
2023/05/14 06:22:10;;;;;;;;;;;12.10;99.90;;;;;;4952771;28;20434;-64
2023/05/14 06:24:36;;;;;;;;;;;12.10;99.90;;;;;;4944734;28;19926;-64
2023/05/14 06:27:01;;;;;;;;;;;12.10;99.90;;;;;;4950548;28;19919;-63
2023/05/14 06:29:27;;;;;;;;;;;12.10;99.90;;;;;;4948209;28;19915;-63
2023/05/14 06:31:52;;;;;;;;;;;12.10;99.90;;;;;;4945882;28;20369;-64
2023/05/14 06:34:18;;;;;;;;;;;12.10;99.90;;;;;;4952427;28;19914;-64
2023/05/14 06:36:44;;;;;;;;;;;12.20;99.90;;;;;;4955383;28;19993;-64
2023/05/14 06:39:09;;;;;;;;;;;12.20;99.90;;;;;;4954663;28;19921;-64
2023/05/14 06:41:35;;;;;;;;;;;12.30;99.90;;;;;;4954001;28;19910;-64
2023/05/14 06:44:00;;;;;;;;;;;12.30;99.90;;;;;;4955136;28;19957;-64
2023/05/14 06:46:26;;;;;;;;;;;12.30;99.90;;;;;;4949132;28;19921;-65
2023/05/14 06:48:51;;;;;;;;;;;12.40;99.90;;;;;;4947136;28;19918;-65
2023/05/14 06:51:17;;;;;;;;;;;12.40;99.90;;;;;;4949359;28;19914;-65
2023/05/14 06:53:42;;;;;;;;;;;12.40;99.90;;;;;;4953544;28;19921;-65
2023/05/14 06:56:08;;;;;;;;;;;12.40;99.90;;;;;;4951176;28;19910;-65
2023/05/14 06:58:33;;;;;;;;;;;12.50;99.90;;;;;;4954076;28;19914;-65
2023/05/14 07:00:59;;;;;;;;;;;12.50;99.90;;;;;;4948203;28;19910;-65
2023/05/14 07:03:24;;;;;;;;;;;12.50;99.90;;;;;;4951804;28;19925;-64
2023/05/14 07:05:50;;;;;;;;;;;12.50;99.90;;;;;;4954686;28;20020;-64
2023/05/14 07:08:16;;;;;;;;;;;12.50;99.90;;;;;;4952809;28;19918;-64
2023/05/14 07:10:41;;;;;;;;;;;12.60;99.90;;;;;;4959663;28;20911;-63
2023/05/14 07:13:07;;;;;;;;;;;12.60;99.90;;;;;;4949143;28;19914;-63
2023/05/14 07:15:33;;;;;;;;;;;12.60;99.90;;;;;;4958299;28;20135;-64
2023/05/14 07:17:58;;;;;;;;;;;12.70;99.90;;;;;;4949394;28;20564;-63
2023/05/14 07:20:24;;;;;;;;;;;12.60;99.90;;;;;;4958673;28;20036;-64
2023/05/14 07:22:50;;;;;;;;;;;12.60;99.90;;;;;;4959366;28;19961;-64
2023/05/14 07:25:15;;;;;;;;;;;12.70;99.90;;;;;;4954885;28;19925;-63
2023/05/14 07:27:41;;;;;;;;;;;12.60;99.90;;;;;;4952510;28;20446;-64
2023/05/14 07:30:06;;;;;;;;;;;12.70;99.90;;;;;;4946744;28;20544;-64
2023/05/14 07:32:32;;;;;;;;;;;12.70;99.90;;;;;;4952071;28;19921;-63
2023/05/14 07:34:58;;;;;;;;;;;12.70;99.90;;;;;;4951404;28;20426;-64
2023/05/14 07:37:24;;;;;;;;;;;12.80;99.90;;;;;;4970020;28;19921;-63
2023/05/14 07:39:50;;;;;;;;;;;12.80;99.90;;;;;;4955370;28;20341;-65
2023/05/14 07:42:16;;;;;;;;;;;12.80;99.90;;;;;;4951832;28;19914;-64
2023/05/14 07:44:42;;;;;;;;;;;12.80;99.90;;;;;;4949673;28;19926;-64
2023/05/14 07:47:07;;;;;;;;;;;12.80;99.90;;;;;;4944748;28;19936;-64
2023/05/14 07:49:33;;;;;;;;;;;12.90;99.90;;;;;;4956015;28;19988;-65
2023/05/14 07:51:58;;;;;;;;;;;12.90;99.90;;;;;;4951361;28;20137;-64
2023/05/14 07:54:24;;;;;;;;;;;12.90;99.90;;;;;;4958094;28;19914;-65
2023/05/14 07:56:50;;;;;;;;;;;12.90;99.90;;;;;;4953139;28;20446;-64
2023/05/14 07:59:15;;;;;;;;;;;13.00;99.90;;;;;;4957644;28;19914;-64
2023/05/14 08:01:41;;;;;;;;;;;13.00;99.90;;;;;;4955619;28;19954;-64
2023/05/14 08:04:06;;;;;;;;;;;13.10;99.90;;;;;;4947995;28;19927;-65
2023/05/14 08:06:32;;;;;;;;;;;13.20;99.90;;;;;;4950227;28;19914;-65
2023/05/14 08:08:58;;;;;;;;;;;13.30;99.90;;;;;;4959216;28;20005;-65
2023/05/14 08:11:23;;;;;;;;;;;13.40;99.90;;;;;;4959417;28;20004;-65
2023/05/14 08:13:49;;;;;;;;;;;13.40;99.90;;;;;;4955651;28;20143;-65
2023/05/14 08:16:15;;;;;;;;;;;13.40;99.90;;;;;;4956155;28;19914;-65
2023/05/14 08:18:40;;;;;;;;;;;13.50;99.90;;;;;;4955686;28;19914;-65
2023/05/14 08:21:06;;;;;;;;;;;13.60;99.90;;;;;;4948837;28;20009;-65
2023/05/14 08:23:31;;;;;;;;;;;13.60;99.90;;;;;;4949516;28;19976;-65
2023/05/14 08:25:58;;;;;;;;;;;13.60;99.90;;;;;;4960026;28;20375;-66
2023/05/14 08:28:23;;;;;;;;;;;13.60;99.90;;;;;;4958530;28;20397;-65
2023/05/14 08:30:49;;;;;;;;;;;13.70;99.90;;;;;;4958589;28;19914;-65
2023/05/14 08:33:14;;;;;;;;;;;13.70;99.90;;;;;;4953131;28;19957;-66
2023/05/14 08:35:40;;;;;;;;;;;13.70;99.90;;;;;;4955121;28;20004;-65
2023/05/14 08:38:05;;;;;;;;;;;13.80;99.90;;;;;;4952803;28;19914;-66
2023/05/14 08:40:31;;;;;;;;;;;13.80;99.90;;;;;;4950821;28;19914;-66
2023/05/14 08:42:57;;;;;;;;;;;13.80;99.90;;;;;;4954005;28;20691;-65
2023/05/14 08:45:25;;;;;;;;;;;13.80;99.90;;;;;;4957240;28;19914;-65
2023/05/14 08:47:51;;;;;;;;;;;13.90;99.90;;;;;;4957753;28;21145;-65
2023/05/14 08:50:18;;;;;;;;;;;13.90;99.90;;;;;;4955266;28;19931;-65
2023/05/14 08:52:44;;;;;;;;;;;14.00;99.90;;;;;;4952607;28;20004;-65
2023/05/14 08:55:10;;;;;;;;;;;14.00;99.90;;;;;;4953748;28;20000;-65
2023/05/14 08:57:36;;;;;;;;;;;14.10;99.90;;;;;;4952312;28;20034;-65
2023/05/14 09:00:07;;;;;;;;;;;14.20;99.90;;;;;;4953812;28;20714;-65
2023/05/14 09:02:33;;;;;;;;;;;14.30;99.90;;;;;;4955628;28;19925;-65
2023/05/14 09:04:59;;;;;;;;;;;14.30;99.90;;;;;;4957326;28;20306;-64
2023/05/14 09:07:25;;;;;;;;;;;14.30;99.90;;;;;;4951771;28;19914;-64
2023/05/14 09:09:51;;;;;;;;;;;14.40;99.90;;;;;;4955669;28;19918;-64
2023/05/14 09:12:17;;;;;;;;;;;14.40;99.90;;;;;;4949351;28;19917;-64
2023/05/14 09:14:42;;;;;;;;;;;14.50;99.90;;;;;;4957059;28;19972;-64
2023/05/14 09:17:08;;;;;;;;;;;14.50;99.90;;;;;;4952913;28;20012;-66
2023/05/14 09:19:34;;;;;;;;;;;14.50;99.90;;;;;;4957597;28;19917;-67
2023/05/14 09:21:59;;;;;;;;;;;14.60;99.90;;;;;;4957909;28;20507;-67
2023/05/14 09:24:26;;;;;;;;;;;14.60;99.90;;;;;;4953762;28;20021;-67
2023/05/14 09:26:52;;;;;;;;;;;14.60;99.90;;;;;;4953096;28;19928;-67
2023/05/14 09:29:18;;;;;;;;;;;14.60;99.90;;;;;;4948300;28;20028;-67
2023/05/14 09:31:43;;;;;;;;;;;14.60;99.90;;;;;;4955889;28;19918;-67
2023/05/14 09:34:09;;;;;;;;;;;14.60;99.90;;;;;;4955565;28;19917;-67
2023/05/14 09:36:35;;;;;;;;;;;14.60;99.90;;;;;;4956227;28;19922;-67
2023/05/14 09:39:02;;;;;;;;;;;14.60;99.90;;;;;;4955906;28;20559;-67
2023/05/14 09:41:28;;;;;;;;;;;14.60;99.90;;;;;;4951032;28;20416;-68
2023/05/14 09:43:55;;;;;;;;;;;14.60;99.90;;;;;;4951857;28;19928;-67
2023/05/14 09:46:21;;;;;;;;;;;14.50;99.90;;;;;;4952651;28;19961;-68
2023/05/14 09:48:47;;;;;;;;;;;14.50;99.90;;;;;;4955221;28;20005;-67
2023/05/14 09:51:12;;;;;;;;;;;14.60;99.90;;;;;;4954777;28;19977;-67
2023/05/14 09:53:40;;;;;;;;;;;14.60;99.90;;;;;;4956952;28;19914;-67
2023/05/14 09:56:05;;;;;;;;;;;14.60;99.90;;;;;;4954897;28;19954;-69
2023/05/14 09:58:31;;;;;;;;;;;14.70;99.90;;;;;;4955613;28;19940;-68
2023/05/14 10:00:57;;;;;;;;;;;14.70;99.90;;;;;;4949018;28;20377;-68
2023/05/14 10:03:24;;;;;;;;;;;14.70;99.90;;;;;;4937162;28;19914;-68
2023/05/14 10:05:50;;;;;;;;;;;14.70;99.90;;;;;;4951695;28;20583;-68
2023/05/14 10:08:15;;;;;;;;;;;14.80;99.90;;;;;;4955064;28;20414;-68
2023/05/14 10:10:41;;;;;;;;;;;14.80;99.90;;;;;;4961176;28;19918;-68
2023/05/14 10:13:10;;;;;;;;;;;14.80;99.90;;;;;;4953477;28;19962;-68
2023/05/14 10:15:39;;;;;;;;;;;14.80;99.90;;;;;;4952939;28;19957;-68
2023/05/14 10:18:08;;;;;;;;;;;14.70;99.90;;;;;;4950161;28;19918;-68
2023/05/14 10:20:35;;;;;;;;;;;14.70;99.90;;;;;;4947145;28;19950;-68
2023/05/14 10:23:01;;;;;;;;;;;14.70;99.90;;;;;;4950424;28;19972;-68
2023/05/14 10:25:26;;;;;;;;;;;14.70;99.90;;;;;;4956014;28;20315;-67
2023/05/14 10:27:52;;;;;;;;;;;14.70;99.90;;;;;;4956064;28;20401;-69
2023/05/14 10:30:19;;;;;;;;;;;14.70;99.90;;;;;;4952247;28;19914;-68
2023/05/14 10:32:45;;;;;;;;;;;14.70;99.90;;;;;;4952979;28;19981;-65
2023/05/14 10:35:15;;;;;;;;;;;14.70;99.90;;;;;;4954086;28;20428;-68
2023/05/14 10:37:40;;;;;;;;;;;14.80;99.90;;;;;;4956544;28;19918;-69
2023/05/14 10:40:08;;;;;;;;;;;14.80;99.90;;;;;;4958605;28;19914;-70
2023/05/14 10:42:39;;;;;;;;;;;14.90;99.90;;;;;;4959465;28;19921;-67
2023/05/14 10:45:06;;;;;;;;;;;14.90;99.90;;;;;;4956752;28;19918;-74
2023/05/14 10:47:32;;;;;;;;;;;14.90;99.90;;;;;;4954755;28;19925;-68
2023/05/14 10:49:58;;;;;;;;;;;15.00;99.90;;;;;;4954532;28;19992;-69
2023/05/14 10:52:25;;;;;;;;;;;15.00;99.90;;;;;;4973964;28;19920;-66
2023/05/14 10:54:50;;;;;;;;;;;15.10;99.90;;;;;;4954652;28;19926;-66
2023/05/14 10:57:17;;;;;;;;;;;15.00;99.90;;;;;;4956582;28;19917;-65
2023/05/14 10:59:42;;;;;;;;;;;15.00;99.90;;;;;;4957633;28;20058;-65
2023/05/14 11:02:37;;;;;;;;;;;15.10;99.90;;;;;;4956618;28;19918;-65
2023/05/14 11:05:04;;;;;;;;;;;15.00;99.90;;;;;;4953849;28;19922;-67
2023/05/14 11:07:30;;;;;;;;;;;15.00;99.90;;;;;;4958498;28;19910;-67
2023/05/14 11:10:00;;;;;;;;;;;15.00;99.90;;;;;;4958932;28;19926;-66
2023/05/14 11:12:26;;;;;;;;;;;15.00;99.90;;;;;;4954527;28;19954;-67
2023/05/14 11:14:52;;;;;;;;;;;15.00;99.90;;;;;;4955824;28;19921;-69
2023/05/14 11:17:18;;;;;;;;;;;15.00;99.90;;;;;;4954957;28;19913;-68
2023/05/14 11:19:44;;;;;;;;;;;15.00;99.90;;;;;;4959963;28;19914;-68
2023/05/14 11:22:12;;;;;;;;;;;15.00;99.90;;;;;;4957271;28;19913;-67
2023/05/14 11:24:39;;;;;;;;;;;15.00;99.90;;;;;;4953675;28;20371;-68
2023/05/14 11:27:07;;;;;;;;;;;15.00;99.90;;;;;;4958339;28;19920;-68
2023/05/14 11:29:32;;;;;;;;;;;15.00;99.90;;;;;;4950048;28;19918;-67
2023/05/14 11:31:58;;;;;;;;;;;15.00;99.90;;;;;;4954920;28;20614;-70
2023/05/14 11:34:23;;;;;;;;;;;15.00;99.90;;;;;;4957382;28;19940;-67
2023/05/14 11:36:49;;;;;;;;;;;15.10;99.90;;;;;;4957205;28;20074;-67
2023/05/14 11:39:18;;;;;;;;;;;15.00;99.90;;;;;;4958894;28;20318;-67
2023/05/14 11:41:44;;;;;;;;;;;15.10;99.90;;;;;;4955398;28;19925;-67
2023/05/14 11:44:10;;;;;;;;;;;15.10;99.90;;;;;;4958895;28;19929;-68
2023/05/14 11:46:36;;;;;;;;;;;15.10;99.90;;;;;;4950150;28;20074;-68
2023/05/14 11:49:04;;;;;;;;;;;15.10;99.90;;;;;;4959062;28;20380;-68
2023/05/14 11:51:30;;;;;;;;;;;15.10;99.90;;;;;;4947205;28;20371;-68
2023/05/14 11:53:57;;;;;;;;;;;15.10;99.90;;;;;;4954780;28;20399;-67
2023/05/14 11:56:23;;;;;;;;;;;15.10;99.90;;;;;;4956017;28;20413;-68
2023/05/14 11:58:48;;;;;;;;;;;15.10;99.90;;;;;;4956891;28;19969;-67
2023/05/14 12:01:14;;;;;;;;;;;15.10;99.90;;;;;;4953282;28;20044;-68
2023/05/14 12:03:40;;;;;;;;;;;15.10;99.90;;;;;;4949829;28;19922;-72
2023/05/14 12:06:07;;;;;;;;;;;15.10;99.90;;;;;;4950579;28;20399;-68
2023/05/14 12:08:32;;;;;;;;;;;15.10;99.90;;;;;;4945101;28;19936;-67
2023/05/14 12:10:59;;;;;;;;;;;15.10;99.90;;;;;;4948267;28;19953;-70
2023/05/14 12:13:31;;;;;;;;;;;15.10;99.90;;;;;;4947374;28;19957;-70
2023/05/14 12:15:58;;;;;;;;;;;15.10;99.90;;;;;;4949714;28;19918;-70
2023/05/14 12:18:24;;;;;;;;;;;15.10;99.90;;;;;;4949295;28;20263;-69
2023/05/14 12:20:50;;;;;;;;;;;15.10;99.90;;;;;;4949688;28;19914;-70
2023/05/14 12:23:23;;;;;;;;;;;15.10;99.90;;;;;;4945382;28;19922;-69
2023/05/14 12:25:50;;;;;;;;;;;15.10;99.90;;;;;;4946248;28;20743;-70
2023/05/14 12:28:16;;;;;;;;;;;15.10;99.90;;;;;;4950745;28;19913;-67
2023/05/14 12:30:41;;;;;;;;;;;15.10;99.90;;;;;;4945818;28;20462;-67
2023/05/14 12:33:07;;;;;;;;;;;15.10;99.90;;;;;;4958260;28;19922;-67
2023/05/14 12:35:32;;;;;;;;;;;15.10;99.90;;;;;;4952125;28;19923;-67
2023/05/14 12:37:58;;;;;;;;;;;15.10;99.90;;;;;;4955353;28;19921;-67
2023/05/14 12:40:23;;;;;;;;;;;15.10;99.90;;;;;;4951780;28;19955;-67
2023/05/14 12:42:49;;;;;;;;;;;15.10;99.90;;;;;;4956635;28;20215;-67
2023/05/14 12:45:14;;;;;;;;;;;15.10;99.90;;;;;;4955106;28;19981;-67
2023/05/14 12:47:40;;;;;;;;;;;15.10;99.90;;;;;;4954050;28;20355;-69
2023/05/14 12:50:06;;;;;;;;;;;15.10;99.90;;;;;;4959479;28;19972;-69
2023/05/14 12:52:31;;;;;;;;;;;15.10;99.90;;;;;;4959249;28;19924;-69
2023/05/14 12:54:57;;;;;;;;;;;15.10;99.90;;;;;;4955685;28;19910;-69
2023/05/14 12:57:22;;;;;;;;;;;15.10;99.90;;;;;;4952651;28;20015;-69
2023/05/14 12:59:48;;;;;;;;;;;15.10;99.90;;;;;;4951856;28;19921;-69
2023/05/14 13:02:14;;;;;;;;;;;15.10;99.90;;;;;;4953888;28;20302;-69
2023/05/14 13:04:40;;;;;;;;;;;15.10;99.90;;;;;;4952025;28;20168;-69
2023/05/14 13:07:07;;;;;;;;;;;15.20;99.90;;;;;;4951878;28;19918;-69
2023/05/14 13:09:33;;;;;;;;;;;15.10;99.90;;;;;;4952139;28;20363;-69
2023/05/14 13:11:58;;;;;;;;;;;15.20;99.90;;;;;;4952437;28;19920;-69
2023/05/14 13:14:24;;;;;;;;;;;15.20;99.90;;;;;;4952137;28;19910;-69
2023/05/14 13:16:49;;;;;;;;;;;15.20;99.90;;;;;;4953648;28;19918;-69
2023/05/14 13:19:15;;;;;;;;;;;15.20;99.90;;;;;;4955124;28;19913;-69
2023/05/14 13:21:40;;;;;;;;;;;15.20;99.90;;;;;;4952316;28;20571;-69
2023/05/14 13:24:08;;;;;;;;;;;15.20;99.90;;;;;;4954973;28;20004;-67
2023/05/14 13:26:35;;;;;;;;;;;15.20;99.90;;;;;;4953773;28;19914;-67
2023/05/14 13:29:00;;;;;;;;;;;15.20;99.90;;;;;;4952162;28;20013;-67
2023/05/14 13:31:26;;;;;;;;;;;15.10;99.90;;;;;;4954845;28;20001;-67
2023/05/14 13:33:51;;;;;;;;;;;15.10;99.90;;;;;;4959340;28;19913;-67
2023/05/14 13:36:17;;;;;;;;;;;15.10;99.90;;;;;;4957039;28;19978;-67
2023/05/14 13:38:44;;;;;;;;;;;15.10;99.90;;;;;;4955197;28;20290;-67
2023/05/14 13:41:10;;;;;;;;;;;15.10;99.90;;;;;;4957387;28;19918;-67
2023/05/14 13:43:35;;;;;;;;;;;15.00;99.90;;;;;;4954456;28;19947;-67
2023/05/14 13:46:02;;;;;;;;;;;15.00;99.90;;;;;;4952222;28;19920;-70
2023/05/14 13:48:27;;;;;;;;;;;15.10;99.90;;;;;;4955056;28;20008;-69
2023/05/14 13:50:53;;;;;;;;;;;15.00;99.90;;;;;;4958934;28;19976;-70
2023/05/14 13:53:19;;;;;;;;;;;15.00;99.90;;;;;;4955292;28;19915;-70
2023/05/14 13:55:45;;;;;;;;;;;15.00;99.90;;;;;;4958249;28;19914;-70
2023/05/14 13:58:10;;;;;;;;;;;15.00;99.90;;;;;;4960161;28;19913;-70
2023/05/14 14:00:36;;;;;;;;;;;14.90;99.90;;;;;;4956829;28;19910;-70
2023/05/14 14:03:01;;;;;;;;;;;14.90;99.90;;;;;;4955925;28;20045;-70
2023/05/14 14:05:28;;;;;;;;;;;14.80;99.90;;;;;;4954215;28;20404;-67
2023/05/14 14:07:54;;;;;;;;;;;14.80;99.90;;;;;;4954704;28;19953;-67
2023/05/14 14:10:20;;;;;;;;;;;14.80;99.90;;;;;;4958760;28;20452;-67